Hauptseite
METAR-TAF:

METAR-TAF

Flughäfen :

Albert, Frankreich

Flughafen Albert-Picardie

Breite: 49-58-21N, Länge: 002-41-29E, Höhe: 111 m

METAR: fehlend

Zeit: 16:13 (15:13 UTC)

Prognose

Neuester Wetterbericht von vor 1 Stunde und 13 Minuten, um 14:00 UTC
Gültige Prognose vom 19 um 15 UTC bis 19 um 24 UTC
Wind 10 kt aus West
Sichtweite 10 km oder mehr
Durchbrochene Bewölkung in der Höhe von 3000 ft
Zeitweise
vom 19 um 15 UTC bis 19 um 21 UTC
Wind 15 kt aus West/Südwest, Böen bis zu 25 kt
Sichtweite: 4000 m
Durchbrochene Bewölkung in der Höhe von 800 ft
Durchbrochene Bewölkung in der Höhe von 1300 ft, Kumulonimbus.
Regenschauer

TAF: LFAQ 191400Z 1915/1924 26010KT 9999 BKN030 TEMPO 1915/1921 25015G25KT 4000 SHRA BKN008 BKN013CB

Wetterbeobachtungen und Prognosen von mehr als 4000 Flughäfen (METAR und TAF Bericht).

Die verfügbaren Stationen werden durch gelbe und rote Markierungen auf der Karte dargestellt.

Führen Sie die Maus auf sie, um den Namen der Station zu sehen.

Darauf klicken, um die Beobachtung von Wetterbeobachtungen und Prognosen zu sehen.

Um die Karte zu ändern : klicken Sie auf den grünen Tasten mit einem schwarzen Kreuz Zum Vergrößern, auf den grünen Button mit einem Gedankenstrich zu verkleinern, oder auf die grünen Pfeile für benachbarte Karten.


METAR-TAF: